createdAt,value
2017-02-18T00:00:52.601Z,0
2017-02-18T00:02:00.696Z,0
2017-02-18T00:03:08.783Z,0
2017-02-18T00:04:16.875Z,0
2017-02-18T00:05:24.957Z,0
2017-02-18T00:06:33.056Z,0
2017-02-18T00:07:41.143Z,0
2017-02-18T00:08:49.235Z,0
2017-02-18T00:09:57.327Z,0
2017-02-18T00:11:05.418Z,0
2017-02-18T00:12:13.507Z,0
2017-02-18T00:13:21.597Z,0
2017-02-18T00:14:29.696Z,0
2017-02-18T00:15:37.811Z,0
2017-02-18T00:16:45.870Z,0
2017-02-18T00:17:53.965Z,0
2017-02-18T00:19:02.057Z,0
2017-02-18T00:20:10.139Z,0
2017-02-18T00:21:18.225Z,0
2017-02-18T00:22:26.320Z,0
2017-02-18T00:23:34.417Z,0
2017-02-18T00:24:42.497Z,0
2017-02-18T00:25:50.596Z,0
2017-02-18T00:26:58.679Z,0
2017-02-18T00:28:06.771Z,0
2017-02-18T00:29:14.867Z,0
2017-02-18T00:30:22.965Z,0
2017-02-18T00:31:31.055Z,0
2017-02-18T00:32:39.145Z,0
2017-02-18T00:33:47.232Z,0
2017-02-18T00:34:55.322Z,0
2017-02-18T00:36:03.407Z,0
2017-02-18T00:37:11.496Z,0
2017-02-18T00:38:19.587Z,0
2017-02-18T00:39:27.677Z,0
2017-02-18T00:40:35.765Z,0
2017-02-18T00:41:43.856Z,0
2017-02-18T00:42:51.940Z,0
2017-02-18T00:44:00.031Z,0
2017-02-18T00:45:08.117Z,0
2017-02-18T00:46:16.223Z,0
2017-02-18T00:47:24.316Z,0
2017-02-18T00:48:32.407Z,0
2017-02-18T00:49:40.496Z,0
2017-02-18T00:50:48.588Z,0
2017-02-18T00:51:56.675Z,0
2017-02-18T00:53:04.764Z,0
2017-02-18T00:54:12.857Z,0
2017-02-18T00:55:20.940Z,0
2017-02-18T00:56:29.035Z,0
2017-02-18T00:57:37.119Z,0
2017-02-18T00:58:45.213Z,0
2017-02-18T00:59:53.299Z,0
2017-02-18T01:01:01.392Z,0
2017-02-18T01:02:09.479Z,0
2017-02-18T01:03:17.564Z,0
2017-02-18T01:04:25.651Z,0
2017-02-18T01:05:33.747Z,0
2017-02-18T01:06:41.835Z,0
2017-02-18T01:07:49.926Z,0
2017-02-18T01:08:58.015Z,0
2017-02-18T01:10:06.102Z,0
2017-02-18T01:11:14.193Z,0
2017-02-18T01:12:22.277Z,0
2017-02-18T01:13:30.375Z,0
2017-02-18T01:14:38.456Z,0
2017-02-18T01:15:46.550Z,0
2017-02-18T01:16:54.644Z,0
2017-02-18T01:18:02.736Z,0
2017-02-18T01:19:10.824Z,0
2017-02-18T01:20:18.913Z,0
2017-02-18T01:21:27.006Z,0
2017-02-18T01:22:35.094Z,0
2017-02-18T01:23:43.181Z,0
2017-02-18T01:24:51.279Z,0
2017-02-18T01:25:59.367Z,0
2017-02-18T01:27:07.455Z,0
2017-02-18T01:28:15.589Z,0
2017-02-18T01:29:23.635Z,0
2017-02-18T01:30:31.728Z,0
2017-02-18T01:31:39.817Z,0
2017-02-18T01:32:47.904Z,0
2017-02-18T01:33:55.997Z,0
2017-02-18T01:35:04.085Z,0
2017-02-18T01:36:12.218Z,0
2017-02-18T01:37:20.266Z,0
2017-02-18T01:38:28.354Z,0
2017-02-18T01:39:36.440Z,0
2017-02-18T01:40:44.537Z,0
2017-02-18T01:41:52.623Z,0
2017-02-18T01:43:00.715Z,0
2017-02-18T01:44:08.801Z,0
2017-02-18T01:45:16.894Z,0
2017-02-18T01:46:24.983Z,0
2017-02-18T01:47:33.068Z,0
2017-02-18T01:48:41.158Z,0
2017-02-18T01:49:49.248Z,0
2017-02-18T01:50:57.338Z,0
2017-02-18T01:52:05.428Z,0
2017-02-18T01:53:13.525Z,0
2017-02-18T01:54:21.617Z,0
2017-02-18T01:55:29.701Z,0
2017-02-18T01:56:37.792Z,0
2017-02-18T01:57:45.882Z,0
2017-02-18T01:58:53.973Z,0
2017-02-18T02:00:02.098Z,0
2017-02-18T02:01:10.149Z,0
2017-02-18T02:02:18.240Z,0
2017-02-18T02:03:26.328Z,0
2017-02-18T02:04:34.420Z,0
2017-02-18T02:05:42.517Z,0
2017-02-18T02:06:50.605Z,0
2017-02-18T02:07:58.688Z,0
2017-02-18T02:09:06.785Z,0
2017-02-18T02:10:14.875Z,0
2017-02-18T02:11:22.961Z,0
2017-02-18T02:12:31.051Z,0
2017-02-18T02:13:39.140Z,0
2017-02-18T02:14:47.225Z,0
2017-02-18T02:15:55.318Z,0
2017-02-18T02:17:03.415Z,0
2017-02-18T02:18:11.554Z,0
2017-02-18T02:19:19.591Z,0
2017-02-18T02:20:27.686Z,0
2017-02-18T02:21:35.768Z,0
2017-02-18T02:22:43.862Z,0
2017-02-18T02:23:51.959Z,0
2017-02-18T02:25:00.049Z,0
2017-02-18T02:26:08.136Z,0
2017-02-18T02:27:16.228Z,0
2017-02-18T02:28:24.320Z,0
2017-02-18T02:29:32.413Z,0
2017-02-18T02:30:40.501Z,0
2017-02-18T02:31:48.595Z,0
2017-02-18T02:32:56.686Z,0
2017-02-18T02:34:04.782Z,0
2017-02-18T02:35:12.865Z,0
2017-02-18T02:36:20.956Z,0
2017-02-18T02:37:29.050Z,0
2017-02-18T02:38:37.135Z,0
2017-02-18T02:39:45.227Z,0
2017-02-18T02:40:53.315Z,0
2017-02-18T02:42:01.404Z,0
2017-02-18T02:43:09.523Z,0
2017-02-18T02:44:17.580Z,0
2017-02-18T02:45:25.669Z,0
2017-02-18T02:46:33.751Z,0
2017-02-18T02:47:41.842Z,0
2017-02-18T02:48:49.934Z,0
2017-02-18T02:49:58.018Z,0
2017-02-18T02:51:06.119Z,0
2017-02-18T02:52:14.218Z,0
2017-02-18T02:53:22.303Z,0
2017-02-18T02:54:30.388Z,0
2017-02-18T02:55:38.482Z,0
2017-02-18T02:56:46.573Z,0
2017-02-18T02:57:54.669Z,0
2017-02-18T02:59:02.754Z,0
2017-02-18T03:00:10.870Z,0
2017-02-18T03:01:18.931Z,0
2017-02-18T03:02:27.024Z,0
2017-02-18T03:03:35.116Z,0
2017-02-18T03:04:43.202Z,0
2017-02-18T03:05:51.288Z,0
2017-02-18T03:06:59.382Z,0
2017-02-18T03:08:07.471Z,0
2017-02-18T03:09:15.560Z,0
2017-02-18T03:10:23.647Z,0
2017-02-18T03:11:31.740Z,0
2017-02-18T03:12:39.833Z,0
2017-02-18T03:13:47.918Z,0
2017-02-18T03:14:56.006Z,0
2017-02-18T03:16:04.102Z,0
2017-02-18T03:17:12.188Z,0
2017-02-18T03:18:20.274Z,0
2017-02-18T03:19:28.362Z,0
2017-02-18T03:20:36.456Z,0
2017-02-18T03:21:44.547Z,0
2017-02-18T03:22:52.634Z,0
2017-02-18T03:24:00.727Z,0
2017-02-18T03:25:08.810Z,0
2017-02-18T03:26:16.902Z,0
2017-02-18T03:27:24.993Z,0
2017-02-18T03:28:33.085Z,0
2017-02-18T03:29:41.169Z,0
2017-02-18T03:30:49.265Z,0
2017-02-18T03:31:57.357Z,0
2017-02-18T03:33:05.444Z,0
2017-02-18T03:34:13.528Z,0
2017-02-18T03:35:21.620Z,0
2017-02-18T03:36:29.711Z,0
2017-02-18T03:37:37.798Z,0
2017-02-18T03:38:45.890Z,0
2017-02-18T03:39:53.978Z,0
2017-02-18T03:41:02.067Z,0
2017-02-18T03:42:10.157Z,0
2017-02-18T03:43:18.247Z,0
2017-02-18T03:44:26.337Z,0
2017-02-18T03:45:34.423Z,0
2017-02-18T03:46:42.509Z,0
2017-02-18T03:47:50.604Z,0
2017-02-18T03:48:58.698Z,0
2017-02-18T03:50:06.782Z,0
2017-02-18T03:51:14.877Z,0
2017-02-18T03:52:22.976Z,0
2017-02-18T03:53:31.062Z,0
2017-02-18T03:54:39.234Z,0
2017-02-18T03:55:47.257Z,0
2017-02-18T03:56:55.344Z,0
2017-02-18T03:58:03.428Z,0
2017-02-18T03:59:11.519Z,0
2017-02-18T04:00:19.610Z,0
2017-02-18T04:01:27.694Z,0
2017-02-18T04:02:35.791Z,0
2017-02-18T04:03:43.874Z,0
2017-02-18T04:04:51.961Z,0
2017-02-18T04:06:00.050Z,0
2017-02-18T04:07:08.148Z,0
2017-02-18T04:08:16.226Z,0
2017-02-18T04:09:24.313Z,0
2017-02-18T04:10:32.419Z,0
2017-02-18T04:11:40.507Z,0
2017-02-18T04:12:48.590Z,0
2017-02-18T04:13:56.675Z,0
2017-02-18T04:15:04.765Z,0
2017-02-18T04:16:12.851Z,0
2017-02-18T04:17:20.939Z,0
2017-02-18T04:18:29.035Z,0
2017-02-18T04:19:37.131Z,0
2017-02-18T04:20:45.219Z,0
2017-02-18T04:21:53.300Z,0
2017-02-18T04:23:01.395Z,0
2017-02-18T04:24:09.488Z,0
2017-02-18T04:25:17.571Z,0
2017-02-18T04:26:25.666Z,0
2017-02-18T04:27:33.757Z,0
2017-02-18T04:28:41.845Z,0
2017-02-18T04:29:49.931Z,0
2017-02-18T04:30:58.021Z,0
2017-02-18T04:32:06.108Z,0
2017-02-18T04:33:14.195Z,0
2017-02-18T04:34:22.287Z,0
2017-02-18T04:35:30.376Z,0
2017-02-18T04:36:38.463Z,0
2017-02-18T04:37:46.564Z,0
2017-02-18T04:38:54.648Z,0
2017-02-18T04:40:02.732Z,0
2017-02-18T04:41:10.819Z,0
2017-02-18T04:42:18.915Z,0
2017-02-18T04:43:26.998Z,0
2017-02-18T04:44:35.090Z,0
2017-02-18T04:45:43.177Z,0
2017-02-18T04:46:51.271Z,0
2017-02-18T04:47:59.362Z,0
2017-02-18T04:49:07.444Z,0
2017-02-18T04:50:15.540Z,0
2017-02-18T04:51:23.626Z,0
2017-02-18T04:52:31.711Z,0
2017-02-18T04:53:39.798Z,0
2017-02-18T04:54:47.891Z,0
2017-02-18T04:55:55.972Z,0
2017-02-18T04:57:04.060Z,0
2017-02-18T04:58:12.152Z,0
2017-02-18T04:59:20.239Z,0
2017-02-18T05:00:28.324Z,0
2017-02-18T05:01:36.412Z,0
2017-02-18T05:02:44.502Z,0
2017-02-18T05:03:52.585Z,0
2017-02-18T05:05:00.676Z,0
2017-02-18T05:06:08.773Z,0
2017-02-18T05:07:16.866Z,0
2017-02-18T05:08:24.951Z,0
2017-02-18T05:09:33.039Z,0
2017-02-18T05:10:41.126Z,0
2017-02-18T05:11:49.220Z,0
2017-02-18T05:12:57.309Z,0
2017-02-18T05:14:05.398Z,0
2017-02-18T05:15:13.540Z,0
2017-02-18T05:16:21.567Z,0
2017-02-18T05:17:29.659Z,0
2017-02-18T05:18:37.744Z,0
2017-02-18T05:19:45.837Z,0
2017-02-18T05:20:53.924Z,0
2017-02-18T05:22:02.017Z,0
2017-02-18T05:23:10.100Z,0
2017-02-18T05:24:18.190Z,0
2017-02-18T05:25:26.275Z,0
2017-02-18T05:26:34.368Z,0
2017-02-18T05:27:42.455Z,0
2017-02-18T05:28:50.540Z,0
2017-02-18T05:29:58.633Z,0
2017-02-18T05:31:06.718Z,0
2017-02-18T05:32:14.843Z,0
2017-02-18T05:33:22.891Z,0
2017-02-18T05:34:30.985Z,0
2017-02-18T05:35:39.072Z,0
2017-02-18T05:36:47.163Z,0
2017-02-18T05:37:55.257Z,0
2017-02-18T05:39:03.344Z,0
2017-02-18T05:40:11.431Z,0
2017-02-18T05:41:19.523Z,0
2017-02-18T05:42:27.614Z,0
2017-02-18T05:43:35.701Z,0
2017-02-18T05:44:43.789Z,0
2017-02-18T05:45:51.881Z,0
2017-02-18T05:46:59.975Z,0
2017-02-18T05:48:08.056Z,0
2017-02-18T05:49:16.148Z,0
2017-02-18T05:50:24.237Z,0
2017-02-18T05:51:32.328Z,0
2017-02-18T05:52:40.420Z,0
2017-02-18T05:53:48.501Z,0
2017-02-18T05:54:56.584Z,0
2017-02-18T05:56:04.678Z,0
2017-02-18T05:57:12.770Z,0
2017-02-18T05:58:20.861Z,0
2017-02-18T05:59:28.950Z,0
2017-02-18T06:00:37.031Z,0
2017-02-18T06:01:45.122Z,0
2017-02-18T06:02:53.213Z,0
2017-02-18T06:04:01.297Z,0
2017-02-18T06:05:09.385Z,0
2017-02-18T06:06:17.585Z,0
2017-02-18T06:07:25.555Z,0
2017-02-18T06:08:33.647Z,0
2017-02-18T06:09:41.738Z,0
2017-02-18T06:10:49.827Z,0
2017-02-18T06:11:57.910Z,0
2017-02-18T06:13:06.000Z,0
2017-02-18T06:14:14.095Z,0
2017-02-18T06:15:22.181Z,0
2017-02-18T06:16:30.269Z,0
2017-02-18T06:17:38.357Z,0
2017-02-18T06:18:46.445Z,0
2017-02-18T06:19:54.527Z,0
2017-02-18T06:21:02.628Z,0
2017-02-18T06:22:10.714Z,0
2017-02-18T06:23:18.797Z,0
2017-02-18T06:24:26.884Z,4
2017-02-18T06:25:34.983Z,4
2017-02-18T06:26:43.066Z,0
2017-02-18T06:27:51.156Z,0
2017-02-18T06:28:59.244Z,0
2017-02-18T06:30:07.328Z,0
2017-02-18T06:31:15.415Z,4
2017-02-18T06:32:23.500Z,0
2017-02-18T06:33:31.588Z,0
2017-02-18T06:34:39.678Z,4
2017-02-18T06:35:47.764Z,4
2017-02-18T06:36:55.852Z,0
2017-02-18T06:38:03.946Z,4
2017-02-18T06:39:12.027Z,4
2017-02-18T06:40:20.128Z,4
2017-02-18T06:41:28.208Z,4
2017-02-18T06:42:36.294Z,4
2017-02-18T06:43:44.388Z,4
2017-02-18T06:44:52.488Z,4
2017-02-18T06:46:00.570Z,4
2017-02-18T06:47:08.657Z,4
2017-02-18T06:48:16.749Z,8
2017-02-18T06:49:24.836Z,4
2017-02-18T06:50:32.925Z,4
2017-02-18T06:51:41.025Z,8
2017-02-18T06:52:49.559Z,8
2017-02-18T06:53:57.197Z,4
2017-02-18T06:55:05.287Z,8
2017-02-18T06:56:13.380Z,8
2017-02-18T06:57:21.471Z,4
2017-02-18T06:58:29.557Z,8
2017-02-18T06:59:37.642Z,12
2017-02-18T07:00:45.735Z,12
2017-02-18T07:01:53.818Z,8
2017-02-18T07:03:01.912Z,12
2017-02-18T07:04:09.998Z,8
2017-02-18T07:05:18.088Z,12
2017-02-18T07:06:26.177Z,12
2017-02-18T07:07:34.275Z,16
2017-02-18T07:08:42.359Z,12
2017-02-18T07:09:50.448Z,12
2017-02-18T07:10:58.536Z,12
2017-02-18T07:12:06.624Z,12
2017-02-18T07:13:14.734Z,16
2017-02-18T07:14:22.804Z,16
2017-02-18T07:15:30.894Z,12
2017-02-18T07:16:38.988Z,12
2017-02-18T07:17:47.159Z,16
2017-02-18T07:18:55.158Z,16
2017-02-18T07:20:03.475Z,16
2017-02-18T07:21:11.337Z,16
2017-02-18T07:22:19.420Z,20
2017-02-18T07:23:27.505Z,20
2017-02-18T07:24:35.596Z,20
2017-02-18T07:25:43.685Z,20
2017-02-18T07:26:51.784Z,20
2017-02-18T07:27:59.870Z,20
2017-02-18T07:29:07.956Z,24
2017-02-18T07:30:16.049Z,28
2017-02-18T07:31:24.135Z,24
2017-02-18T07:32:32.222Z,24
2017-02-18T07:33:40.313Z,24
2017-02-18T07:34:48.393Z,24
2017-02-18T07:35:56.488Z,20
2017-02-18T07:37:04.574Z,24
2017-02-18T07:38:12.781Z,16
2017-02-18T07:39:20.750Z,20
2017-02-18T07:40:28.836Z,16
2017-02-18T07:41:36.920Z,16
2017-02-18T07:42:45.009Z,20
2017-02-18T07:43:53.159Z,20
2017-02-18T07:45:01.201Z,20
2017-02-18T07:46:09.291Z,24
2017-02-18T07:47:17.390Z,20
2017-02-18T07:48:25.480Z,20
2017-02-18T07:49:33.566Z,20
2017-02-18T07:50:41.654Z,20
2017-02-18T07:51:49.742Z,20
2017-02-18T07:52:59.118Z,16
2017-02-18T07:54:05.916Z,20
2017-02-18T07:55:14.160Z,20
2017-02-18T07:56:22.102Z,20
2017-02-18T07:57:30.183Z,20
2017-02-18T07:58:38.273Z,24
2017-02-18T07:59:46.360Z,20
2017-02-18T08:00:54.446Z,24
2017-02-18T08:02:02.529Z,24
2017-02-18T08:03:10.622Z,20
2017-02-18T08:04:18.706Z,24
2017-02-18T08:05:26.792Z,24
2017-02-18T08:06:36.163Z,24
2017-02-18T08:07:42.976Z,28
2017-02-18T08:08:51.065Z,28
2017-02-18T08:09:59.153Z,36
2017-02-18T08:11:07.248Z,36
2017-02-18T08:12:15.345Z,32
2017-02-18T08:13:23.429Z,28
2017-02-18T08:14:31.525Z,32
2017-02-18T08:15:40.140Z,28
2017-02-18T08:16:47.694Z,28
2017-02-18T08:17:55.784Z,28
2017-02-18T08:19:03.877Z,32
2017-02-18T08:20:11.965Z,36
2017-02-18T08:21:20.047Z,40
2017-02-18T08:22:28.137Z,36
2017-02-18T08:23:36.229Z,28
2017-02-18T08:24:44.312Z,36
2017-02-18T08:25:52.396Z,40
2017-02-18T08:27:00.503Z,36
2017-02-18T08:28:08.576Z,32
2017-02-18T08:29:16.674Z,36
2017-02-18T08:30:24.762Z,36
2017-02-18T08:31:33.287Z,40
2017-02-18T08:32:40.942Z,40
2017-02-18T08:33:49.030Z,40
2017-02-18T08:34:57.191Z,40
2017-02-18T08:36:05.220Z,40
2017-02-18T08:37:13.328Z,40
2017-02-18T08:38:21.389Z,32
2017-02-18T08:39:29.476Z,40
2017-02-18T08:40:37.557Z,44
2017-02-18T08:41:45.649Z,48
2017-02-18T08:42:53.742Z,44
2017-02-18T08:44:01.844Z,28
2017-02-18T08:45:09.915Z,40
2017-02-18T08:46:18.120Z,40
2017-02-18T08:47:26.094Z,40
2017-02-18T08:48:34.183Z,44
2017-02-18T08:49:42.388Z,44
2017-02-18T08:50:50.474Z,36
2017-02-18T08:51:58.450Z,48
2017-02-18T08:53:06.539Z,52
2017-02-18T08:54:14.632Z,44
2017-02-18T08:55:22.727Z,60
2017-02-18T08:56:30.814Z,48
2017-02-18T08:57:39.084Z,36
2017-02-18T08:58:46.995Z,48
2017-02-18T08:59:55.079Z,48
2017-02-18T09:01:03.161Z,48
2017-02-18T09:02:11.516Z,48
2017-02-18T09:03:19.679Z,48
2017-02-18T09:04:27.424Z,48
2017-02-18T09:05:35.518Z,52
2017-02-18T09:06:43.606Z,52
2017-02-18T09:07:52.036Z,60
2017-02-18T09:08:59.775Z,52
2017-02-18T09:10:07.885Z,60
2017-02-18T09:11:16.013Z,64
2017-02-18T09:12:24.038Z,60
2017-02-18T09:13:32.136Z,64
2017-02-18T09:14:40.216Z,60
2017-02-18T09:15:48.304Z,56
2017-02-18T09:16:56.392Z,52
2017-02-18T09:18:04.486Z,64
2017-02-18T09:19:12.581Z,64
2017-02-18T09:20:20.658Z,68
2017-02-18T09:21:28.823Z,64
2017-02-18T09:22:37.533Z,64
2017-02-18T09:23:44.933Z,60
2017-02-18T09:24:53.015Z,64
2017-02-18T09:26:01.113Z,60
2017-02-18T09:27:09.199Z,56
2017-02-18T09:28:17.284Z,56
2017-02-18T09:29:25.375Z,48
2017-02-18T09:30:33.460Z,44
2017-02-18T09:31:41.549Z,48
2017-02-18T09:32:49.640Z,56
2017-02-18T09:33:57.737Z,56
2017-02-18T09:35:05.821Z,56
2017-02-18T09:36:13.904Z,60
2017-02-18T09:37:22.000Z,40
2017-02-18T09:38:30.181Z,56
2017-02-18T09:39:38.172Z,56
2017-02-18T09:40:46.261Z,56
2017-02-18T09:41:54.358Z,64
2017-02-18T09:43:02.443Z,56
2017-02-18T09:44:10.528Z,60
2017-02-18T09:45:18.626Z,60
2017-02-18T09:46:26.715Z,56
2017-02-18T09:47:34.806Z,56
2017-02-18T09:48:42.890Z,64
2017-02-18T09:49:50.983Z,64
2017-02-18T09:50:59.080Z,60
2017-02-18T09:52:07.156Z,56
2017-02-18T09:53:15.260Z,76
2017-02-18T09:54:23.348Z,72
2017-02-18T09:55:31.433Z,68
2017-02-18T09:56:39.520Z,76
2017-02-18T09:57:47.650Z,76
2017-02-18T09:58:55.695Z,68
2017-02-18T10:00:03.781Z,68
2017-02-18T10:01:11.874Z,68
2017-02-18T10:02:19.955Z,76
2017-02-18T10:03:28.041Z,64
2017-02-18T10:04:36.132Z,76
2017-02-18T10:05:44.219Z,76
2017-02-18T10:06:52.305Z,72
2017-02-18T10:08:00.401Z,72
2017-02-18T10:09:08.497Z,68
2017-02-18T10:10:16.584Z,52
2017-02-18T10:11:24.672Z,68
2017-02-18T10:12:32.763Z,68
2017-02-18T10:13:40.846Z,68
2017-02-18T10:14:48.934Z,68
2017-02-18T10:15:57.019Z,76
2017-02-18T10:17:05.109Z,72
2017-02-18T10:18:13.196Z,64
2017-02-18T10:19:21.281Z,72
2017-02-18T10:20:29.374Z,72
2017-02-18T10:21:37.469Z,68
2017-02-18T10:22:45.562Z,80
2017-02-18T10:23:53.645Z,76
2017-02-18T10:25:01.736Z,72
2017-02-18T10:26:09.822Z,72
2017-02-18T10:27:17.905Z,72
2017-02-18T10:28:26.012Z,72
2017-02-18T10:29:34.101Z,60
2017-02-18T10:30:42.193Z,68
2017-02-18T10:31:50.277Z,68
2017-02-18T10:32:58.380Z,52
2017-02-18T10:34:06.469Z,60
2017-02-18T10:35:14.561Z,44
2017-02-18T10:36:22.647Z,48
2017-02-18T10:37:30.745Z,56
2017-02-18T10:38:38.831Z,60
2017-02-18T10:39:46.923Z,64
2017-02-18T10:40:55.020Z,64
2017-02-18T10:42:03.110Z,72
2017-02-18T10:43:11.188Z,68
2017-02-18T10:44:19.280Z,68
2017-02-18T10:45:27.365Z,64
2017-02-18T10:46:35.451Z,60
2017-02-18T10:47:43.536Z,64
2017-02-18T10:48:51.629Z,60
2017-02-18T10:49:59.718Z,60
2017-02-18T10:51:07.803Z,64
2017-02-18T10:52:15.890Z,64
2017-02-18T10:53:23.984Z,68
2017-02-18T10:54:32.069Z,64
2017-02-18T10:55:40.160Z,64
2017-02-18T10:56:48.252Z,44
2017-02-18T10:57:56.337Z,40
2017-02-18T10:59:04.425Z,56
2017-02-18T11:00:12.516Z,68
2017-02-18T11:01:20.604Z,52
2017-02-18T11:02:28.688Z,72
2017-02-18T11:03:36.784Z,52
2017-02-18T11:04:44.865Z,52
2017-02-18T11:05:52.956Z,56
2017-02-18T11:07:01.051Z,48
2017-02-18T11:08:09.145Z,60
2017-02-18T11:09:17.234Z,48
2017-02-18T11:10:25.341Z,60
2017-02-18T11:11:33.421Z,40
2017-02-18T11:12:41.513Z,36
2017-02-18T11:13:49.605Z,36
2017-02-18T11:14:57.685Z,44
2017-02-18T11:16:05.778Z,28
2017-02-18T11:17:13.866Z,52
2017-02-18T11:18:21.947Z,56
2017-02-18T11:19:30.041Z,60
2017-02-18T11:20:38.130Z,60
2017-02-18T11:21:46.216Z,40
2017-02-18T11:22:54.300Z,44
2017-02-18T11:24:02.395Z,60
2017-02-18T11:25:10.489Z,52
2017-02-18T11:26:18.575Z,60
2017-02-18T11:27:26.666Z,56
2017-02-18T11:28:34.758Z,56
2017-02-18T11:29:42.848Z,48
2017-02-18T11:30:50.931Z,52
2017-02-18T11:31:59.027Z,56
2017-02-18T11:33:07.119Z,52
2017-02-18T11:34:15.200Z,60
2017-02-18T11:35:23.300Z,60
2017-02-18T11:36:31.387Z,56
2017-02-18T11:37:39.477Z,52
2017-02-18T11:38:47.562Z,52
2017-02-18T11:39:55.654Z,52
2017-02-18T11:41:03.738Z,52
2017-02-18T11:42:11.832Z,52
2017-02-18T11:43:19.929Z,52
2017-02-18T11:44:28.014Z,32
2017-02-18T11:45:36.101Z,48
2017-02-18T11:46:44.184Z,48
2017-02-18T11:47:52.274Z,48
2017-02-18T11:49:00.367Z,52
2017-02-18T11:50:08.528Z,40
2017-02-18T11:51:16.549Z,52
2017-02-18T11:52:24.639Z,48
2017-02-18T11:53:32.729Z,28
2017-02-18T11:54:40.814Z,52
2017-02-18T11:55:48.917Z,56
2017-02-18T11:56:56.990Z,56
2017-02-18T11:58:05.073Z,56
2017-02-18T11:59:13.167Z,52
2017-02-18T12:00:21.257Z,36
2017-02-18T12:01:29.347Z,52
2017-02-18T12:02:37.432Z,56
2017-02-18T12:03:45.515Z,48
2017-02-18T12:04:53.604Z,52
2017-02-18T12:06:01.690Z,44
2017-02-18T12:07:09.780Z,48
2017-02-18T12:08:17.872Z,24
2017-02-18T12:09:25.964Z,44
2017-02-18T12:10:34.060Z,44
2017-02-18T12:11:42.147Z,52
2017-02-18T12:12:50.846Z,48
2017-02-18T12:13:58.936Z,48
2017-02-18T12:15:06.795Z,48
2017-02-18T12:16:14.751Z,48
2017-02-18T12:17:23.243Z,56
2017-02-18T12:18:30.671Z,48
2017-02-18T12:19:38.770Z,48
2017-02-18T12:20:46.850Z,44
2017-02-18T12:21:54.983Z,44
2017-02-18T12:23:03.027Z,48
2017-02-18T12:24:11.126Z,48
2017-02-18T12:25:19.211Z,44
2017-02-18T12:26:27.294Z,44
2017-02-18T12:27:35.393Z,48
2017-02-18T12:28:43.481Z,48
2017-02-18T12:29:51.571Z,44
2017-02-18T12:30:59.659Z,44
2017-02-18T12:32:08.183Z,44
2017-02-18T12:33:15.835Z,44
2017-02-18T12:34:23.930Z,44
2017-02-18T12:35:32.021Z,44
2017-02-18T12:36:40.112Z,44
2017-02-18T12:37:48.195Z,44
2017-02-18T12:38:56.286Z,44
2017-02-18T12:40:04.376Z,44
2017-02-18T12:41:12.455Z,48
2017-02-18T12:42:20.545Z,44
2017-02-18T12:43:28.630Z,44
2017-02-18T12:44:36.729Z,48
2017-02-18T12:45:44.812Z,44
2017-02-18T12:46:52.904Z,44
2017-02-18T12:48:00.988Z,48
2017-02-18T12:49:09.085Z,48
2017-02-18T12:50:17.163Z,52
2017-02-18T12:51:25.253Z,48
2017-02-18T12:52:33.334Z,56
2017-02-18T12:53:41.467Z,60
2017-02-18T12:54:49.518Z,64
2017-02-18T12:55:57.608Z,64
2017-02-18T12:57:05.700Z,60
2017-02-18T12:58:13.793Z,64
2017-02-18T12:59:21.884Z,68
2017-02-18T13:00:29.971Z,56
2017-02-18T13:01:38.059Z,52
2017-02-18T13:02:46.149Z,48
2017-02-18T13:03:54.242Z,52
2017-02-18T13:05:02.326Z,52
2017-02-18T13:06:10.417Z,28
2017-02-18T13:07:18.499Z,28
2017-02-18T13:08:26.584Z,56
2017-02-18T13:09:34.672Z,44
2017-02-18T13:10:42.767Z,36
2017-02-18T13:11:50.851Z,36
2017-02-18T13:12:58.942Z,32
2017-02-18T13:14:07.039Z,36
2017-02-18T13:15:15.125Z,56
2017-02-18T13:16:23.210Z,60
2017-02-18T13:17:31.295Z,60
2017-02-18T13:18:39.392Z,52
2017-02-18T13:19:47.473Z,52
2017-02-18T13:20:55.559Z,56
2017-02-18T13:22:03.651Z,48
2017-02-18T13:23:11.740Z,44
2017-02-18T13:24:19.827Z,48
2017-02-18T13:25:27.910Z,44
2017-02-18T13:26:35.999Z,44
2017-02-18T13:27:44.091Z,44
2017-02-18T13:28:52.177Z,44
2017-02-18T13:30:00.267Z,44
2017-02-18T13:31:08.357Z,44
2017-02-18T13:32:16.444Z,40
2017-02-18T13:33:24.530Z,40
2017-02-18T13:34:32.619Z,44
2017-02-18T13:35:40.712Z,40
2017-02-18T13:36:48.798Z,44
2017-02-18T13:37:56.888Z,40
2017-02-18T13:39:04.983Z,44
2017-02-18T13:40:13.067Z,44
2017-02-18T13:41:21.159Z,40
2017-02-18T13:42:29.250Z,40
2017-02-18T13:43:37.340Z,44
2017-02-18T13:44:45.424Z,40
2017-02-18T13:45:53.516Z,40
2017-02-18T13:47:01.603Z,40
2017-02-18T13:48:09.772Z,40
2017-02-18T13:49:17.782Z,44
2017-02-18T13:50:25.873Z,44
2017-02-18T13:51:33.963Z,44
2017-02-18T13:52:42.066Z,44
2017-02-18T13:53:50.142Z,44
2017-02-18T13:54:58.231Z,48
2017-02-18T13:56:06.316Z,44
2017-02-18T13:57:14.407Z,48
2017-02-18T13:58:22.503Z,48
2017-02-18T13:59:30.589Z,48
2017-02-18T14:00:38.677Z,52
2017-02-18T14:01:46.774Z,28
2017-02-18T14:02:54.864Z,56
2017-02-18T14:04:02.951Z,48
2017-02-18T14:05:11.042Z,36
2017-02-18T14:06:19.136Z,36
2017-02-18T14:07:27.221Z,48
2017-02-18T14:08:35.313Z,64
2017-02-18T14:09:43.404Z,68
2017-02-18T14:10:51.492Z,68
2017-02-18T14:11:59.582Z,68
2017-02-18T14:13:07.673Z,64
2017-02-18T14:14:15.760Z,60
2017-02-18T14:15:23.846Z,64
2017-02-18T14:16:31.931Z,60
2017-02-18T14:17:40.027Z,60
2017-02-18T14:18:48.112Z,60
2017-02-18T14:19:56.202Z,64
2017-02-18T14:21:04.304Z,60
2017-02-18T14:22:12.432Z,60
2017-02-18T14:23:20.487Z,60
2017-02-18T14:24:28.580Z,60
2017-02-18T14:25:36.674Z,60
2017-02-18T14:26:44.760Z,60
2017-02-18T14:27:52.849Z,56
2017-02-18T14:29:00.939Z,56
2017-02-18T14:30:09.023Z,60
2017-02-18T14:31:17.111Z,60
2017-02-18T14:32:25.196Z,60
2017-02-18T14:33:33.286Z,64
2017-02-18T14:34:41.378Z,64
2017-02-18T14:35:49.465Z,68
2017-02-18T14:36:57.554Z,64
2017-02-18T14:38:05.646Z,72
2017-02-18T14:39:13.748Z,72
2017-02-18T14:40:21.823Z,80
2017-02-18T14:41:29.917Z,88
2017-02-18T14:42:38.005Z,92
2017-02-18T14:43:46.096Z,96
2017-02-18T14:44:54.189Z,100
2017-02-18T14:46:02.273Z,100
2017-02-18T14:47:10.366Z,104
2017-02-18T14:48:18.452Z,104
2017-02-18T14:49:26.546Z,104
2017-02-18T14:50:34.637Z,100
2017-02-18T14:51:42.723Z,96
2017-02-18T14:52:50.821Z,92
2017-02-18T14:53:58.911Z,92
2017-02-18T14:55:06.996Z,92
2017-02-18T14:56:15.089Z,92
2017-02-18T14:57:23.175Z,88
2017-02-18T14:58:31.267Z,84
2017-02-18T14:59:39.353Z,80
2017-02-18T15:00:47.443Z,80
2017-02-18T15:01:55.537Z,76
2017-02-18T15:03:03.622Z,76
2017-02-18T15:04:11.712Z,76
2017-02-18T15:05:19.806Z,72
2017-02-18T15:06:27.888Z,72
2017-02-18T15:07:35.975Z,72
2017-02-18T15:08:44.076Z,64
2017-02-18T15:09:52.165Z,64
2017-02-18T15:11:00.256Z,60
2017-02-18T15:12:08.344Z,56
2017-02-18T15:13:16.434Z,56
2017-02-18T15:14:24.519Z,56
2017-02-18T15:15:32.603Z,52
2017-02-18T15:16:40.694Z,44
2017-02-18T15:17:48.782Z,44
2017-02-18T15:18:56.872Z,40
2017-02-18T15:20:04.967Z,36
2017-02-18T15:21:13.067Z,32
2017-02-18T15:22:21.155Z,28
2017-02-18T15:23:29.238Z,20
2017-02-18T15:24:37.334Z,20
2017-02-18T15:25:45.438Z,20
2017-02-18T15:26:53.513Z,16
2017-02-18T15:28:01.603Z,20
2017-02-18T15:29:09.692Z,16
2017-02-18T15:30:17.776Z,20
2017-02-18T15:31:25.865Z,16
2017-02-18T15:32:33.958Z,20
2017-02-18T15:33:42.047Z,16
2017-02-18T15:34:50.134Z,16
2017-02-18T15:35:58.227Z,16
2017-02-18T15:37:06.313Z,16
2017-02-18T15:38:14.406Z,16
2017-02-18T15:39:22.491Z,16
2017-02-18T15:40:30.584Z,20
2017-02-18T15:41:38.672Z,20
2017-02-18T15:42:46.763Z,20
2017-02-18T15:43:54.853Z,20
2017-02-18T15:45:02.946Z,16
2017-02-18T15:46:11.038Z,16
2017-02-18T15:47:19.130Z,16
2017-02-18T15:48:27.219Z,16
2017-02-18T15:49:35.310Z,12
2017-02-18T15:50:43.392Z,16
2017-02-18T15:51:51.482Z,16
2017-02-18T15:52:59.572Z,12
2017-02-18T15:54:07.657Z,12
2017-02-18T15:55:15.749Z,16
2017-02-18T15:56:23.841Z,12
2017-02-18T15:57:31.928Z,12
2017-02-18T15:58:40.013Z,12
2017-02-18T15:59:48.110Z,12
2017-02-18T16:00:56.203Z,12
2017-02-18T16:02:04.290Z,12
2017-02-18T16:03:12.378Z,12
2017-02-18T16:04:20.468Z,8
2017-02-18T16:05:28.553Z,8
2017-02-18T16:06:36.644Z,8
2017-02-18T16:07:44.742Z,8
2017-02-18T16:08:52.834Z,8
2017-02-18T16:10:00.918Z,8
2017-02-18T16:11:09.011Z,8
2017-02-18T16:12:17.103Z,8
2017-02-18T16:13:25.191Z,4
2017-02-18T16:14:33.378Z,8
2017-02-18T16:15:41.368Z,8
2017-02-18T16:16:49.518Z,4
2017-02-18T16:17:58.071Z,8
2017-02-18T16:19:05.634Z,8
2017-02-18T16:20:13.974Z,4
2017-02-18T16:21:23.375Z,4
2017-02-18T16:22:29.897Z,8
2017-02-18T16:23:37.990Z,4
2017-02-18T16:24:46.083Z,4
2017-02-18T16:25:54.174Z,4
2017-02-18T16:27:02.260Z,4